createdAt,value
2023-03-04T00:00:52.700Z,2.70
2023-03-04T00:03:20.192Z,2.70
2023-03-04T00:05:47.528Z,2.60
2023-03-04T00:08:14.999Z,2.60
2023-03-04T00:10:42.231Z,2.50
2023-03-04T00:13:09.805Z,2.40
2023-03-04T00:15:37.014Z,2.40
2023-03-04T00:18:04.531Z,2.40
2023-03-04T00:20:31.887Z,2.40
2023-03-04T00:22:59.414Z,2.40
2023-03-04T00:25:26.668Z,2.40
2023-03-04T00:27:54.069Z,2.40
2023-03-04T00:30:21.381Z,2.30
2023-03-04T00:32:48.817Z,2.10
2023-03-04T00:35:16.247Z,2.20
2023-03-04T00:37:43.681Z,2.20
2023-03-04T00:40:11.576Z,2.10
2023-03-04T00:42:38.956Z,2.10
2023-03-04T00:45:06.839Z,2.10
2023-03-04T00:47:34.359Z,2.00
2023-03-04T00:50:01.599Z,2.00
2023-03-04T00:52:29.028Z,2.00
2023-03-04T00:54:56.250Z,2.00
2023-03-04T00:57:23.709Z,2.00
2023-03-04T00:59:51.249Z,2.00
2023-03-04T01:02:18.772Z,2.00
2023-03-04T01:04:46.034Z,1.90
2023-03-04T01:07:13.388Z,1.80
2023-03-04T01:09:40.748Z,1.80
2023-03-04T01:12:08.628Z,1.80
2023-03-04T01:14:36.056Z,1.80
2023-03-04T01:17:03.522Z,1.70
2023-03-04T01:19:30.784Z,1.70
2023-03-04T01:21:59.631Z,1.60
2023-03-04T01:24:26.837Z,1.60
2023-03-04T01:26:54.247Z,1.60
2023-03-04T01:29:22.712Z,1.50
2023-03-04T01:31:50.035Z,1.50
2023-03-04T01:34:18.263Z,1.50
2023-03-04T01:36:45.828Z,1.50
2023-03-04T01:39:13.330Z,1.50
2023-03-04T01:41:40.767Z,1.50
2023-03-04T01:44:11.085Z,1.50
2023-03-04T01:46:39.793Z,1.50
2023-03-04T01:49:09.981Z,1.40
2023-03-04T01:51:37.318Z,1.30
2023-03-04T01:54:04.581Z,1.30
2023-03-04T01:56:37.651Z,1.30
2023-03-04T01:59:16.101Z,1.20
2023-03-04T02:01:52.201Z,1.20
2023-03-04T02:04:23.359Z,1.20
2023-03-04T02:06:51.418Z,1.20
2023-03-04T02:09:19.751Z,1.20
2023-03-04T02:11:49.406Z,1.20
2023-03-04T02:14:19.590Z,1.20
2023-03-04T02:16:49.066Z,1.20
2023-03-04T02:19:28.366Z,1.10
2023-03-04T02:21:57.204Z,1.10
2023-03-04T02:24:50.198Z,1.10
2023-03-04T02:27:17.598Z,1.00
2023-03-04T02:29:45.095Z,1.00
2023-03-04T02:32:14.323Z,1.00
2023-03-04T02:34:47.759Z,0.90
2023-03-04T02:37:15.903Z,0.90
2023-03-04T02:39:46.297Z,0.90
2023-03-04T02:42:13.749Z,0.80
2023-03-04T02:44:46.606Z,0.80
2023-03-04T02:47:20.363Z,0.80
2023-03-04T02:49:49.571Z,0.80
2023-03-04T02:52:22.724Z,0.80
2023-03-04T02:54:50.206Z,0.80
2023-03-04T02:57:18.168Z,0.70
2023-03-04T02:59:49.457Z,0.70
2023-03-04T03:02:21.289Z,0.70
2023-03-04T03:04:48.685Z,0.70
2023-03-04T03:07:18.709Z,0.70
2023-03-04T03:09:46.329Z,0.70
2023-03-04T03:12:13.575Z,0.60
2023-03-04T03:14:40.864Z,0.50
2023-03-04T03:17:11.038Z,0.50
2023-03-04T03:19:38.324Z,0.50
2023-03-04T03:22:07.664Z,0.50
2023-03-04T03:24:35.029Z,0.50
2023-03-04T03:27:03.171Z,0.50
2023-03-04T03:29:31.055Z,0.50
2023-03-04T03:31:59.279Z,0.40
2023-03-04T03:34:26.732Z,0.40
2023-03-04T03:36:54.094Z,0.40
2023-03-04T03:39:22.385Z,0.40
2023-03-04T03:41:50.228Z,0.30
2023-03-04T03:44:17.598Z,0.30
2023-03-04T03:46:44.844Z,0.30
2023-03-04T03:49:12.377Z,0.30
2023-03-04T03:51:39.735Z,0.30
2023-03-04T03:54:07.357Z,0.30
2023-03-04T03:56:34.537Z,0.30
2023-03-04T03:59:01.862Z,0.20
2023-03-04T04:01:29.346Z,0.20
2023-03-04T04:03:56.617Z,0.20
2023-03-04T04:06:23.963Z,0.20
2023-03-04T04:08:51.551Z,0.10
2023-03-04T04:11:19.243Z,0.10
2023-03-04T04:13:46.702Z,0.00
2023-03-04T04:16:14.016Z,0.00
2023-03-04T04:18:41.316Z,0.00
2023-03-04T04:21:09.632Z,0.00
2023-03-04T04:23:36.912Z,-0.10
2023-03-04T04:26:04.446Z,-0.10
2023-03-04T04:28:31.641Z,-0.10
2023-03-04T04:30:59.076Z,-0.10
2023-03-04T04:33:26.523Z,-0.10
2023-03-04T04:35:53.996Z,-0.10
2023-03-04T04:38:21.299Z,-0.10
2023-03-04T04:40:48.746Z,-0.10
2023-03-04T04:43:16.012Z,-0.20
2023-03-04T04:45:43.372Z,-0.20
2023-03-04T04:48:10.639Z,-0.20
2023-03-04T04:50:38.162Z,-0.30
2023-03-04T04:53:05.398Z,-0.30
2023-03-04T04:55:35.069Z,-0.30
2023-03-04T04:58:02.354Z,-0.30
2023-03-04T05:00:29.710Z,-0.30
2023-03-04T05:02:56.985Z,-0.30
2023-03-04T05:05:24.516Z,-0.30
2023-03-04T05:07:51.791Z,-0.30
2023-03-04T05:10:19.117Z,-0.40
2023-03-04T05:12:46.440Z,-0.40
2023-03-04T05:15:13.703Z,-0.40
2023-03-04T05:17:40.940Z,-0.40
2023-03-04T05:20:09.318Z,-0.40
2023-03-04T05:22:36.613Z,-0.40
2023-03-04T05:25:04.211Z,-0.50
2023-03-04T05:27:31.417Z,-0.50
2023-03-04T05:30:02.518Z,-0.50
2023-03-04T05:32:29.838Z,-0.50
2023-03-04T05:34:57.501Z,-0.60
2023-03-04T05:37:25.176Z,-0.50
2023-03-04T05:39:52.609Z,-0.60
2023-03-04T05:42:20.094Z,-0.60
2023-03-04T05:44:47.513Z,-0.60
2023-03-04T05:47:14.770Z,-0.60
2023-03-04T05:49:42.859Z,-0.60
2023-03-04T05:52:10.648Z,-0.60
2023-03-04T05:54:37.929Z,-0.60
2023-03-04T05:57:05.674Z,-0.60
2023-03-04T05:59:34.668Z,-0.60
2023-03-04T06:02:01.967Z,-0.60
2023-03-04T06:04:29.248Z,-0.60
2023-03-04T06:06:56.662Z,-0.60
2023-03-04T06:09:24.117Z,-0.60
2023-03-04T06:11:51.456Z,-0.60
2023-03-04T06:14:18.995Z,-0.60
2023-03-04T06:16:46.317Z,-0.60
2023-03-04T06:19:13.685Z,-0.60
2023-03-04T06:21:40.976Z,-0.60
2023-03-04T06:24:08.449Z,-0.60
2023-03-04T06:26:35.917Z,-0.50
2023-03-04T06:29:04.484Z,-0.50
2023-03-04T06:31:31.818Z,-0.50
2023-03-04T06:33:59.208Z,-0.40
2023-03-04T06:36:26.559Z,-0.40
2023-03-04T06:38:54.027Z,-0.40
2023-03-04T06:41:21.472Z,-0.30
2023-03-04T06:43:48.755Z,-0.20
2023-03-04T06:46:16.037Z,-0.20
2023-03-04T06:48:43.417Z,-0.10
2023-03-04T06:51:12.373Z,0.00
2023-03-04T06:53:40.723Z,0.10
2023-03-04T06:56:10.104Z,0.20
2023-03-04T06:58:37.710Z,0.30
2023-03-04T07:01:19.188Z,0.40
2023-03-04T07:03:46.740Z,0.50
2023-03-04T07:06:16.062Z,0.60
2023-03-04T07:08:43.728Z,0.80
2023-03-04T07:11:11.657Z,0.90
2023-03-04T07:13:39.135Z,1.00
2023-03-04T07:16:08.645Z,1.20
2023-03-04T07:18:36.937Z,1.40
2023-03-04T07:21:05.168Z,1.50
2023-03-04T07:23:32.946Z,1.70
2023-03-04T07:26:00.367Z,2.00
2023-03-04T07:28:27.996Z,2.30
2023-03-04T07:30:55.360Z,2.50
2023-03-04T07:33:22.692Z,2.80
2023-03-04T07:35:58.357Z,3.10
2023-03-04T07:38:25.664Z,3.20
2023-03-04T07:40:58.004Z,3.40
2023-03-04T07:43:25.695Z,3.80
2023-03-04T07:45:53.061Z,4.10
2023-03-04T07:48:20.526Z,4.40
2023-03-04T07:50:47.798Z,4.70
2023-03-04T07:53:15.194Z,5.00
2023-03-04T07:55:57.064Z,5.50
2023-03-04T07:58:26.070Z,5.90
2023-03-04T08:00:53.403Z,6.50
2023-03-04T08:03:20.946Z,7.10
2023-03-04T08:05:48.245Z,7.60
2023-03-04T08:08:17.475Z,8.00
2023-03-04T08:10:45.632Z,8.50
2023-03-04T08:13:13.108Z,9.20
2023-03-04T08:15:41.988Z,9.90
2023-03-04T08:18:09.458Z,10.50
2023-03-04T08:20:36.726Z,11.10
2023-03-04T08:23:04.314Z,11.80
2023-03-04T08:25:31.735Z,12.20
2023-03-04T08:28:00.015Z,12.50
2023-03-04T08:30:27.649Z,12.90
2023-03-04T08:32:54.924Z,13.40
2023-03-04T08:35:22.449Z,13.80
2023-03-04T08:37:49.728Z,14.00
2023-03-04T08:40:18.085Z,14.40
2023-03-04T08:42:45.362Z,15.10
2023-03-04T08:45:12.783Z,15.50
2023-03-04T08:47:41.078Z,16.00
2023-03-04T08:50:09.207Z,16.60
2023-03-04T08:52:36.703Z,17.20
2023-03-04T08:55:04.291Z,17.60
2023-03-04T08:57:31.734Z,17.40
2023-03-04T08:59:59.009Z,17.60
2023-03-04T09:02:26.666Z,17.10
2023-03-04T09:04:54.017Z,17.10
2023-03-04T09:07:21.418Z,17.50
2023-03-04T09:09:48.904Z,17.30
2023-03-04T09:12:16.320Z,17.90
2023-03-04T09:14:43.859Z,17.90
2023-03-04T09:17:11.250Z,18.20
2023-03-04T09:19:38.664Z,18.90
2023-03-04T09:22:05.976Z,19.60
2023-03-04T09:24:33.221Z,20.20
2023-03-04T09:27:00.586Z,20.20
2023-03-04T09:29:28.032Z,19.90
2023-03-04T09:31:55.378Z,19.60
2023-03-04T09:34:22.811Z,20.20
2023-03-04T09:36:50.074Z,20.10
2023-03-04T09:39:17.405Z,20.20
2023-03-04T09:41:48.344Z,20.80
2023-03-04T09:44:15.712Z,21.20
2023-03-04T09:46:45.033Z,21.50
2023-03-04T09:49:14.271Z,22.30
2023-03-04T09:51:52.536Z,23.10
2023-03-04T09:54:23.455Z,23.60
2023-03-04T09:56:52.934Z,23.30
2023-03-04T09:59:31.144Z,24.20
2023-03-04T10:02:16.333Z,25.60
2023-03-04T10:04:50.563Z,25.60
2023-03-04T10:07:35.731Z,26.40
2023-03-04T10:10:13.954Z,26.30
2023-03-04T10:12:45.394Z,26.30
2023-03-04T10:15:18.536Z,26.20
2023-03-04T10:17:51.573Z,26.50
2023-03-04T10:20:20.622Z,26.90
2023-03-04T10:22:50.126Z,27.30
2023-03-04T10:25:20.587Z,26.80
2023-03-04T10:28:18.187Z,27.20
2023-03-04T10:30:59.170Z,27.90
2023-03-04T10:33:30.766Z,26.90
2023-03-04T10:36:03.264Z,24.30
2023-03-04T10:38:36.963Z,22.00
2023-03-04T10:41:20.997Z,21.10
2023-03-04T10:44:16.778Z,20.00
2023-03-04T10:46:48.961Z,19.60
2023-03-04T10:49:20.825Z,19.50
2023-03-04T10:51:49.613Z,18.90
2023-03-04T10:54:26.042Z,18.70
2023-03-04T10:56:55.939Z,18.50
2023-03-04T10:59:42.151Z,18.30
2023-03-04T11:02:31.546Z,18.00
2023-03-04T11:05:09.946Z,17.70
2023-03-04T11:07:54.436Z,17.80
2023-03-04T11:10:27.075Z,17.60
2023-03-04T11:13:25.760Z,16.90
2023-03-04T11:16:05.519Z,17.00
2023-03-04T11:18:41.724Z,17.20
2023-03-04T11:21:19.233Z,16.80
2023-03-04T11:23:55.550Z,16.90
2023-03-04T11:26:50.069Z,16.80
2023-03-04T11:29:31.498Z,16.70
2023-03-04T11:32:08.140Z,16.60
2023-03-04T11:34:44.753Z,16.30
2023-03-04T11:37:46.067Z,16.20
2023-03-04T11:40:19.230Z,16.30
2023-03-04T11:42:49.967Z,16.00
2023-03-04T11:45:43.565Z,16.00
2023-03-04T11:48:26.035Z,16.10
2023-03-04T11:51:40.435Z,16.20
2023-03-04T11:54:43.665Z,16.20
2023-03-04T11:57:44.618Z,15.90
2023-03-04T12:00:24.364Z,16.00
2023-03-04T12:03:13.230Z,16.00
2023-03-04T12:05:52.936Z,15.80
2023-03-04T12:08:48.777Z,15.80
2023-03-04T12:11:30.252Z,15.70
2023-03-04T12:14:03.219Z,15.80
2023-03-04T12:16:42.813Z,15.80
2023-03-04T12:19:24.479Z,15.90
2023-03-04T12:22:17.110Z,15.90
2023-03-04T12:25:03.121Z,15.60
2023-03-04T12:27:36.351Z,15.60
2023-03-04T12:30:27.483Z,15.50
2023-03-04T12:32:57.687Z,15.40
2023-03-04T12:35:31.118Z,15.30
2023-03-04T12:38:32.603Z,15.10
2023-03-04T12:41:09.081Z,15.00
2023-03-04T12:44:21.746Z,15.10
2023-03-04T12:47:08.832Z,15.10
2023-03-04T12:50:08.598Z,15.10
2023-03-04T12:52:52.999Z,15.00
2023-03-04T12:55:32.544Z,15.00
2023-03-04T12:58:00.123Z,15.00
2023-03-04T13:00:47.837Z,15.10
2023-03-04T13:03:32.091Z,15.20
2023-03-04T13:06:57.191Z,15.20
2023-03-04T13:09:34.340Z,15.20
2023-03-04T13:12:22.534Z,15.30
2023-03-04T13:15:09.168Z,15.20
2023-03-04T13:17:51.683Z,15.20
2023-03-04T13:20:25.436Z,15.20
2023-03-04T13:22:58.247Z,15.10
2023-03-04T13:25:44.271Z,15.00
2023-03-04T13:28:11.582Z,14.90
2023-03-04T13:30:39.086Z,14.90
2023-03-04T13:33:09.380Z,15.00
2023-03-04T13:36:06.409Z,15.10
2023-03-04T13:38:37.417Z,15.30
2023-03-04T13:41:20.239Z,15.30
2023-03-04T13:44:03.057Z,15.30
2023-03-04T13:46:42.476Z,15.30
2023-03-04T13:49:22.312Z,15.30
2023-03-04T13:51:50.138Z,15.20
2023-03-04T13:54:24.072Z,15.20
2023-03-04T13:57:16.578Z,15.20
2023-03-04T13:59:48.593Z,15.20
2023-03-04T14:02:20.700Z,15.30
2023-03-04T14:04:54.185Z,15.20
2023-03-04T14:07:28.875Z,15.20
2023-03-04T14:10:04.926Z,15.30
2023-03-04T14:12:35.867Z,15.30
2023-03-04T14:15:22.877Z,15.30
2023-03-04T14:17:53.854Z,15.30
2023-03-04T14:20:38.042Z,15.20
2023-03-04T14:23:24.816Z,15.20
2023-03-04T14:25:52.066Z,15.30
2023-03-04T14:28:21.367Z,15.20
2023-03-04T14:30:53.824Z,15.20
2023-03-04T14:33:31.075Z,15.30
2023-03-04T14:36:01.539Z,15.40
2023-03-04T14:38:33.507Z,15.40
2023-03-04T14:41:04.740Z,15.40
2023-03-04T14:44:03.517Z,15.40
2023-03-04T14:46:37.133Z,15.40
2023-03-04T14:49:04.767Z,15.40
2023-03-04T14:51:38.664Z,15.30
2023-03-04T14:54:06.774Z,15.20
2023-03-04T14:56:37.152Z,15.20
2023-03-04T14:59:04.807Z,15.30
2023-03-04T15:01:35.276Z,15.30
2023-03-04T15:04:12.231Z,15.30
2023-03-04T15:06:49.544Z,15.30
2023-03-04T15:09:27.791Z,15.30
2023-03-04T15:12:08.992Z,15.30
2023-03-04T15:14:50.373Z,15.30
2023-03-04T15:17:41.271Z,15.30
2023-03-04T15:20:11.877Z,15.30
2023-03-04T15:23:02.009Z,15.20
2023-03-04T15:25:30.536Z,15.10
2023-03-04T15:28:01.640Z,15.10
2023-03-04T15:30:34.740Z,15.00
2023-03-04T15:33:03.493Z,15.10
2023-03-04T15:35:32.874Z,15.00
2023-03-04T15:38:04.455Z,14.90
2023-03-04T15:40:42.149Z,14.90
2023-03-04T15:43:14.913Z,14.80
2023-03-04T15:45:44.029Z,14.80
2023-03-04T15:48:16.029Z,14.70
2023-03-04T15:51:07.622Z,14.80
2023-03-04T15:53:57.311Z,14.70
2023-03-04T15:56:31.303Z,14.60
2023-03-04T15:59:17.277Z,14.60
2023-03-04T16:01:45.451Z,14.50
2023-03-04T16:04:17.338Z,14.50
2023-03-04T16:06:47.287Z,14.40
2023-03-04T16:09:18.965Z,14.40
2023-03-04T16:11:48.004Z,14.20
2023-03-04T16:14:17.322Z,14.10
2023-03-04T16:16:47.453Z,14.10
2023-03-04T16:19:15.270Z,14.10
2023-03-04T16:21:43.584Z,14.00
2023-03-04T16:24:22.147Z,14.00
2023-03-04T16:26:49.523Z,13.90
2023-03-04T16:29:21.272Z,13.80
2023-03-04T16:31:48.737Z,13.70
2023-03-04T16:34:16.447Z,13.70
2023-03-04T16:36:44.054Z,13.70
2023-03-04T16:39:22.951Z,13.60
2023-03-04T16:41:52.858Z,13.60
2023-03-04T16:44:21.264Z,13.50
2023-03-04T16:46:49.197Z,13.40
2023-03-04T16:49:17.252Z,13.40
2023-03-04T16:51:49.566Z,13.30
2023-03-04T16:54:30.627Z,13.10
2023-03-04T16:56:59.514Z,13.10
2023-03-04T16:59:28.637Z,13.00
2023-03-04T17:01:56.596Z,13.00
2023-03-04T17:04:25.549Z,12.90
2023-03-04T17:06:53.390Z,12.80
2023-03-04T17:09:25.633Z,12.80
2023-03-04T17:11:53.716Z,12.70
2023-03-04T17:14:22.212Z,12.60
2023-03-04T17:16:50.461Z,12.60
2023-03-04T17:19:18.632Z,12.50
2023-03-04T17:21:46.576Z,12.50
2023-03-04T17:24:14.674Z,12.40
2023-03-04T17:26:44.393Z,12.30
2023-03-04T17:29:13.326Z,12.30
2023-03-04T17:31:41.888Z,12.20
2023-03-04T17:34:10.124Z,12.10
2023-03-04T17:36:38.074Z,12.10
2023-03-04T17:39:08.047Z,12.00
2023-03-04T17:41:36.752Z,11.90
2023-03-04T17:44:06.359Z,12.00
2023-03-04T17:46:34.639Z,11.80
2023-03-04T17:49:04.040Z,11.80
2023-03-04T17:51:37.556Z,11.70
2023-03-04T17:54:09.640Z,11.60
2023-03-04T17:56:40.149Z,11.50
2023-03-04T17:59:12.034Z,11.50
2023-03-04T18:01:42.125Z,11.40
2023-03-04T18:04:10.626Z,11.30
2023-03-04T18:06:40.331Z,11.20
2023-03-04T18:09:08.815Z,11.20
2023-03-04T18:11:41.272Z,11.10
2023-03-04T18:14:10.114Z,11.00
2023-03-04T18:16:40.434Z,10.90
2023-03-04T18:19:10.104Z,10.80
2023-03-04T18:21:46.279Z,10.60
2023-03-04T18:24:15.734Z,10.60
2023-03-04T18:26:43.628Z,10.50
2023-03-04T18:29:12.063Z,10.40
2023-03-04T18:31:40.531Z,10.20
2023-03-04T18:34:09.180Z,10.20
2023-03-04T18:36:37.775Z,10.10
2023-03-04T18:39:07.765Z,10.00
2023-03-04T18:41:35.646Z,9.90
2023-03-04T18:44:06.776Z,9.80
2023-03-04T18:46:47.511Z,9.80
2023-03-04T18:49:16.540Z,9.70
2023-03-04T18:51:45.180Z,9.50
2023-03-04T18:54:13.707Z,9.50
2023-03-04T18:56:47.947Z,9.40
2023-03-04T18:59:42.162Z,9.30
2023-03-04T19:02:40.028Z,9.20
2023-03-04T19:05:17.735Z,9.10
2023-03-04T19:07:49.965Z,9.10
2023-03-04T19:10:19.113Z,9.00
2023-03-04T19:12:47.785Z,8.90
2023-03-04T19:15:16.857Z,8.80
2023-03-04T19:17:46.764Z,8.70
2023-03-04T19:20:17.138Z,8.70
2023-03-04T19:22:45.861Z,8.60
2023-03-04T19:25:14.540Z,8.50
2023-03-04T19:27:45.197Z,8.40
2023-03-04T19:30:13.838Z,8.40
2023-03-04T19:32:42.328Z,8.30
2023-03-04T19:35:12.811Z,8.20
2023-03-04T19:37:40.936Z,8.10
2023-03-04T19:40:11.719Z,8.00
2023-03-04T19:42:40.048Z,7.90
2023-03-04T19:45:11.002Z,7.90
2023-03-04T19:47:42.100Z,7.80
2023-03-04T19:50:12.219Z,7.80
2023-03-04T19:52:40.373Z,7.70
2023-03-04T19:55:11.132Z,7.70
2023-03-04T19:57:42.015Z,7.60
2023-03-04T20:00:13.289Z,7.60
2023-03-04T20:02:41.156Z,7.50
2023-03-04T20:05:10.668Z,7.50
2023-03-04T20:07:41.017Z,7.50
2023-03-04T20:10:10.621Z,7.50
2023-03-04T20:12:39.074Z,7.40
2023-03-04T20:15:08.776Z,7.40
2023-03-04T20:17:37.641Z,7.40
2023-03-04T20:20:05.970Z,7.30
2023-03-04T20:22:35.473Z,7.30
2023-03-04T20:25:03.824Z,7.30
2023-03-04T20:27:33.450Z,7.30
2023-03-04T20:30:03.722Z,7.20
2023-03-04T20:32:32.214Z,7.20
2023-03-04T20:35:00.938Z,7.20
2023-03-04T20:37:31.037Z,7.20
2023-03-04T20:39:59.383Z,7.20
2023-03-04T20:42:28.040Z,7.20
2023-03-04T20:44:57.807Z,7.20
2023-03-04T20:47:26.583Z,7.10
2023-03-04T20:49:54.361Z,7.10
2023-03-04T20:52:22.520Z,7.10
2023-03-04T20:54:50.718Z,7.00
2023-03-04T20:57:18.520Z,7.00
2023-03-04T20:59:46.683Z,6.90
2023-03-04T21:02:16.673Z,6.70
2023-03-04T21:04:52.918Z,6.60
2023-03-04T21:07:20.756Z,6.60
2023-03-04T21:09:59.202Z,6.60
2023-03-04T21:12:28.208Z,6.50
2023-03-04T21:14:56.495Z,6.20
2023-03-04T21:17:25.492Z,6.20
2023-03-04T21:19:59.836Z,6.20
2023-03-04T21:22:27.515Z,6.10
2023-03-04T21:24:57.541Z,6.10
2023-03-04T21:27:26.637Z,6.00
2023-03-04T21:29:54.055Z,5.90
2023-03-04T21:32:27.402Z,5.90
2023-03-04T21:34:56.099Z,5.80
2023-03-04T21:37:26.317Z,5.80
2023-03-04T21:39:55.638Z,5.80
2023-03-04T21:42:29.298Z,5.80
2023-03-04T21:44:57.162Z,5.70
2023-03-04T21:47:28.547Z,5.70
2023-03-04T21:49:56.095Z,5.60
2023-03-04T21:52:24.585Z,5.50
2023-03-04T21:54:52.173Z,5.40
2023-03-04T21:57:21.261Z,5.40
2023-03-04T21:59:49.425Z,5.30
2023-03-04T22:02:22.550Z,5.30
2023-03-04T22:04:50.025Z,5.30
2023-03-04T22:07:18.701Z,5.20
2023-03-04T22:09:46.360Z,5.20
2023-03-04T22:12:15.845Z,5.10
2023-03-04T22:14:48.566Z,5.10
2023-03-04T22:17:15.936Z,5.10
2023-03-04T22:19:44.521Z,5.00
2023-03-04T22:22:12.085Z,4.90
2023-03-04T22:24:43.196Z,4.90
2023-03-04T22:27:10.567Z,4.80
2023-03-04T22:29:38.029Z,4.70
2023-03-04T22:32:05.731Z,4.70
2023-03-04T22:34:34.282Z,4.70
2023-03-04T22:37:01.537Z,4.60
2023-03-04T22:39:28.810Z,4.60
2023-03-04T22:41:56.219Z,4.60
2023-03-04T22:44:23.598Z,4.50
2023-03-04T22:46:57.294Z,4.40
2023-03-04T22:49:24.635Z,4.40
2023-03-04T22:51:51.904Z,4.40
2023-03-04T22:54:19.977Z,4.30
2023-03-04T22:56:47.288Z,4.30
2023-03-04T22:59:14.730Z,4.20
2023-03-04T23:01:42.583Z,4.20
2023-03-04T23:04:12.026Z,4.00
2023-03-04T23:06:39.362Z,3.90
2023-03-04T23:09:07.035Z,3.90
2023-03-04T23:11:39.627Z,3.90
2023-03-04T23:14:08.173Z,3.70
2023-03-04T23:16:39.488Z,3.70
2023-03-04T23:19:07.452Z,3.70
2023-03-04T23:21:34.840Z,3.70
2023-03-04T23:24:03.382Z,3.60
2023-03-04T23:26:33.020Z,3.50
2023-03-04T23:29:03.152Z,3.50
2023-03-04T23:31:34.339Z,3.40
2023-03-04T23:34:03.541Z,3.40
2023-03-04T23:36:33.840Z,3.40
2023-03-04T23:39:01.487Z,3.30
2023-03-04T23:41:30.815Z,3.30
2023-03-04T23:43:59.409Z,3.30
2023-03-04T23:46:27.917Z,3.20
2023-03-04T23:48:55.952Z,3.00
2023-03-04T23:51:26.117Z,3.00
2023-03-04T23:53:53.562Z,3.10
2023-03-04T23:56:29.783Z,3.10
2023-03-04T23:58:57.924Z,3.00
